sensor_id;sensor_type;location;lat;lon;timestamp;temperature;humidity
41756;DHT22;27435;48.480;9.258;2022-12-07T00:01:14;3.50;99.00
41756;DHT22;27435;48.480;9.258;2022-12-07T00:03:42;3.40;99.00
41756;DHT22;27435;48.480;9.258;2022-12-07T00:06:09;3.50;99.00
41756;DHT22;27435;48.480;9.258;2022-12-07T00:08:35;3.50;99.00
41756;DHT22;27435;48.480;9.258;2022-12-07T00:11:06;3.50;99.00
41756;DHT22;27435;48.480;9.258;2022-12-07T00:13:33;3.40;99.00
41756;DHT22;27435;48.480;9.258;2022-12-07T00:16:19;3.30;99.00
41756;DHT22;27435;48.480;9.258;2022-12-07T00:18:45;3.40;99.00
41756;DHT22;27435;48.480;9.258;2022-12-07T00:23:37;3.50;99.00
41756;DHT22;27435;48.480;9.258;2022-12-07T00:28:46;3.50;99.00
41756;DHT22;27435;48.480;9.258;2022-12-07T00:31:13;3.50;99.00
41756;DHT22;27435;48.480;9.258;2022-12-07T00:33:39;3.40;99.00
41756;DHT22;27435;48.480;9.258;2022-12-07T00:36:07;3.50;99.00
41756;DHT22;27435;48.480;9.258;2022-12-07T00:38:35;3.50;99.00
41756;DHT22;27435;48.480;9.258;2022-12-07T00:41:03;3.50;99.00
41756;DHT22;27435;48.480;9.258;2022-12-07T00:43:29;3.50;99.00
41756;DHT22;27435;48.480;9.258;2022-12-07T00:45:55;3.50;99.00
41756;DHT22;27435;48.480;9.258;2022-12-07T00:48:22;3.40;99.00
41756;DHT22;27435;48.480;9.258;2022-12-07T00:50:48;3.20;99.00
41756;DHT22;27435;48.480;9.258;2022-12-07T00:53:15;3.20;99.00
41756;DHT22;27435;48.480;9.258;2022-12-07T00:55:42;3.20;99.00
41756;DHT22;27435;48.480;9.258;2022-12-07T00:58:08;3.10;99.00
41756;DHT22;27435;48.480;9.258;2022-12-07T01:00:35;3.10;99.00
41756;DHT22;27435;48.480;9.258;2022-12-07T01:03:01;3.20;99.00
41756;DHT22;27435;48.480;9.258;2022-12-07T01:05:26;3.20;99.00
41756;DHT22;27435;48.480;9.258;2022-12-07T01:07:52;3.10;99.00
41756;DHT22;27435;48.480;9.258;2022-12-07T01:10:18;3.00;99.00
41756;DHT22;27435;48.480;9.258;2022-12-07T01:12:43;3.00;99.00
41756;DHT22;27435;48.480;9.258;2022-12-07T01:15:09;3.00;99.00
41756;DHT22;27435;48.480;9.258;2022-12-07T01:17:35;3.00;99.00
41756;DHT22;27435;48.480;9.258;2022-12-07T01:20:01;3.10;99.00
41756;DHT22;27435;48.480;9.258;2022-12-07T01:22:27;3.20;99.00
41756;DHT22;27435;48.480;9.258;2022-12-07T01:24:52;3.00;99.00
41756;DHT22;27435;48.480;9.258;2022-12-07T01:27:18;3.10;99.00
41756;DHT22;27435;48.480;9.258;2022-12-07T01:29:44;3.00;99.00
41756;DHT22;27435;48.480;9.258;2022-12-07T01:32:10;3.10;99.00
41756;DHT22;27435;48.480;9.258;2022-12-07T01:34:35;3.10;99.00
41756;DHT22;27435;48.480;9.258;2022-12-07T01:37:01;3.10;99.00
41756;DHT22;27435;48.480;9.258;2022-12-07T01:39:27;3.20;99.00
41756;DHT22;27435;48.480;9.258;2022-12-07T01:41:53;3.10;99.00
41756;DHT22;27435;48.480;9.258;2022-12-07T01:46:51;3.00;99.00
41756;DHT22;27435;48.480;9.258;2022-12-07T01:49:31;3.10;99.00
41756;DHT22;27435;48.480;9.258;2022-12-07T01:52:17;3.30;99.00
41756;DHT22;27435;48.480;9.258;2022-12-07T01:54:46;3.30;99.00
41756;DHT22;27435;48.480;9.258;2022-12-07T01:57:14;3.10;99.00
41756;DHT22;27435;48.480;9.258;2022-12-07T01:59:41;3.20;99.00
41756;DHT22;27435;48.480;9.258;2022-12-07T02:02:19;3.20;99.00
41756;DHT22;27435;48.480;9.258;2022-12-07T02:04:46;3.20;99.00
41756;DHT22;27435;48.480;9.258;2022-12-07T02:07:12;3.20;99.00
41756;DHT22;27435;48.480;9.258;2022-12-07T02:09:38;3.20;99.00
41756;DHT22;27435;48.480;9.258;2022-12-07T02:12:04;3.20;99.00
41756;DHT22;27435;48.480;9.258;2022-12-07T02:14:30;3.20;99.00
41756;DHT22;27435;48.480;9.258;2022-12-07T02:27:46;3.10;99.00
41756;DHT22;27435;48.480;9.258;2022-12-07T02:30:19;3.10;99.00
41756;DHT22;27435;48.480;9.258;2022-12-07T02:33:00;3.20;99.00
41756;DHT22;27435;48.480;9.258;2022-12-07T02:35:33;3.20;99.00
41756;DHT22;27435;48.480;9.258;2022-12-07T02:38:06;3.00;99.00
41756;DHT22;27435;48.480;9.258;2022-12-07T02:40:48;3.00;99.00
41756;DHT22;27435;48.480;9.258;2022-12-07T02:43:39;3.00;99.00
41756;DHT22;27435;48.480;9.258;2022-12-07T02:46:09;3.00;99.00
41756;DHT22;27435;48.480;9.258;2022-12-07T02:48:37;2.80;99.00
41756;DHT22;27435;48.480;9.258;2022-12-07T02:51:04;2.80;99.00
41756;DHT22;27435;48.480;9.258;2022-12-07T02:53:38;2.80;99.00
41756;DHT22;27435;48.480;9.258;2022-12-07T02:56:29;2.80;99.00
41756;DHT22;27435;48.480;9.258;2022-12-07T03:10:40;3.10;99.00
41756;DHT22;27435;48.480;9.258;2022-12-07T03:13:19;2.90;99.00
41756;DHT22;27435;48.480;9.258;2022-12-07T03:21:34;2.90;99.00
41756;DHT22;27435;48.480;9.258;2022-12-07T03:24:07;2.80;99.00
41756;DHT22;27435;48.480;9.258;2022-12-07T03:26:37;2.70;99.00
41756;DHT22;27435;48.480;9.258;2022-12-07T03:29:27;2.60;99.00
41756;DHT22;27435;48.480;9.258;2022-12-07T03:32:29;2.60;99.00
41756;DHT22;27435;48.480;9.258;2022-12-07T03:35:04;2.70;99.00
41756;DHT22;27435;48.480;9.258;2022-12-07T03:37:41;2.70;99.00
41756;DHT22;27435;48.480;9.258;2022-12-07T03:40:17;2.70;99.00
41756;DHT22;27435;48.480;9.258;2022-12-07T03:42:45;2.70;99.00
41756;DHT22;27435;48.480;9.258;2022-12-07T03:45:11;2.70;99.00
41756;DHT22;27435;48.480;9.258;2022-12-07T03:47:54;2.60;99.00
41756;DHT22;27435;48.480;9.258;2022-12-07T03:50:31;2.70;99.00
41756;DHT22;27435;48.480;9.258;2022-12-07T03:53:05;2.80;99.00
41756;DHT22;27435;48.480;9.258;2022-12-07T03:55:36;2.90;99.00
41756;DHT22;27435;48.480;9.258;2022-12-07T03:58:07;2.70;99.00
41756;DHT22;27435;48.480;9.258;2022-12-07T04:00:34;2.60;99.00
41756;DHT22;27435;48.480;9.258;2022-12-07T04:03:00;2.60;99.00
41756;DHT22;27435;48.480;9.258;2022-12-07T04:05:26;2.70;99.00
41756;DHT22;27435;48.480;9.258;2022-12-07T04:07:52;2.80;99.00
41756;DHT22;27435;48.480;9.258;2022-12-07T04:10:17;2.90;99.00
41756;DHT22;27435;48.480;9.258;2022-12-07T04:12:43;3.00;99.00
41756;DHT22;27435;48.480;9.258;2022-12-07T04:15:09;3.00;99.00
41756;DHT22;27435;48.480;9.258;2022-12-07T04:17:35;2.90;99.00
41756;DHT22;27435;48.480;9.258;2022-12-07T04:20:00;2.90;99.00
41756;DHT22;27435;48.480;9.258;2022-12-07T04:22:26;3.00;99.00
41756;DHT22;27435;48.480;9.258;2022-12-07T04:24:52;3.00;99.00
41756;DHT22;27435;48.480;9.258;2022-12-07T04:27:17;3.00;99.00
41756;DHT22;27435;48.480;9.258;2022-12-07T04:29:43;3.10;99.00
41756;DHT22;27435;48.480;9.258;2022-12-07T04:32:09;3.20;99.00
41756;DHT22;27435;48.480;9.258;2022-12-07T04:34:34;3.10;99.00
41756;DHT22;27435;48.480;9.258;2022-12-07T04:37:00;3.10;99.00
41756;DHT22;27435;48.480;9.258;2022-12-07T04:39:29;3.00;99.00
41756;DHT22;27435;48.480;9.258;2022-12-07T04:41:56;2.90;99.00
41756;DHT22;27435;48.480;9.258;2022-12-07T04:44:22;2.90;99.00
41756;DHT22;27435;48.480;9.258;2022-12-07T04:46:48;3.00;99.00
41756;DHT22;27435;48.480;9.258;2022-12-07T04:49:15;2.90;99.00
41756;DHT22;27435;48.480;9.258;2022-12-07T04:51:42;2.90;99.00
41756;DHT22;27435;48.480;9.258;2022-12-07T04:54:08;2.90;99.00
41756;DHT22;27435;48.480;9.258;2022-12-07T04:56:34;2.90;99.00
41756;DHT22;27435;48.480;9.258;2022-12-07T04:59:01;2.80;99.00
41756;DHT22;27435;48.480;9.258;2022-12-07T05:01:26;2.80;99.00
41756;DHT22;27435;48.480;9.258;2022-12-07T05:03:52;2.80;99.00
41756;DHT22;27435;48.480;9.258;2022-12-07T05:06:19;2.80;99.00
41756;DHT22;27435;48.480;9.258;2022-12-07T05:08:44;2.70;99.00
41756;DHT22;27435;48.480;9.258;2022-12-07T05:11:11;2.60;99.00
41756;DHT22;27435;48.480;9.258;2022-12-07T05:13:59;2.60;99.00
41756;DHT22;27435;48.480;9.258;2022-12-07T05:16:26;2.60;99.00
41756;DHT22;27435;48.480;9.258;2022-12-07T05:18:51;2.50;99.00
41756;DHT22;27435;48.480;9.258;2022-12-07T05:21:17;2.40;99.00
41756;DHT22;27435;48.480;9.258;2022-12-07T05:23:43;2.30;99.00
41756;DHT22;27435;48.480;9.258;2022-12-07T05:26:08;2.20;99.00
41756;DHT22;27435;48.480;9.258;2022-12-07T05:28:34;2.10;99.00
41756;DHT22;27435;48.480;9.258;2022-12-07T05:30:59;1.80;99.00
41756;DHT22;27435;48.480;9.258;2022-12-07T05:33:25;1.50;99.00
41756;DHT22;27435;48.480;9.258;2022-12-07T05:35:51;1.50;99.00
41756;DHT22;27435;48.480;9.258;2022-12-07T05:38:16;1.60;99.00
41756;DHT22;27435;48.480;9.258;2022-12-07T05:40:42;1.60;99.00
41756;DHT22;27435;48.480;9.258;2022-12-07T05:43:07;1.60;99.00
41756;DHT22;27435;48.480;9.258;2022-12-07T05:45:33;1.60;99.00
41756;DHT22;27435;48.480;9.258;2022-12-07T05:47:58;1.60;99.00
41756;DHT22;27435;48.480;9.258;2022-12-07T05:50:24;1.60;99.00
41756;DHT22;27435;48.480;9.258;2022-12-07T05:52:50;1.40;99.00
41756;DHT22;27435;48.480;9.258;2022-12-07T05:55:16;1.30;99.00
41756;DHT22;27435;48.480;9.258;2022-12-07T05:57:41;1.10;99.00
41756;DHT22;27435;48.480;9.258;2022-12-07T06:00:27;0.80;99.00
41756;DHT22;27435;48.480;9.258;2022-12-07T06:02:52;0.70;99.00
41756;DHT22;27435;48.480;9.258;2022-12-07T06:05:18;0.90;99.00
41756;DHT22;27435;48.480;9.258;2022-12-07T06:07:44;0.90;99.00
41756;DHT22;27435;48.480;9.258;2022-12-07T06:10:09;0.80;99.00
41756;DHT22;27435;48.480;9.258;2022-12-07T06:12:35;0.80;99.00
41756;DHT22;27435;48.480;9.258;2022-12-07T06:15:01;0.70;99.00
41756;DHT22;27435;48.480;9.258;2022-12-07T06:17:26;0.60;99.00
41756;DHT22;27435;48.480;9.258;2022-12-07T06:19:52;0.60;99.00
41756;DHT22;27435;48.480;9.258;2022-12-07T06:22:18;0.40;99.00
41756;DHT22;27435;48.480;9.258;2022-12-07T06:24:43;0.30;99.00
41756;DHT22;27435;48.480;9.258;2022-12-07T06:27:09;0.30;99.00
41756;DHT22;27435;48.480;9.258;2022-12-07T06:29:35;0.20;99.00
41756;DHT22;27435;48.480;9.258;2022-12-07T06:32:02;0.20;99.00
41756;DHT22;27435;48.480;9.258;2022-12-07T06:34:28;0.20;99.00
41756;DHT22;27435;48.480;9.258;2022-12-07T06:36:54;0.20;99.00
41756;DHT22;27435;48.480;9.258;2022-12-07T06:39:27;0.20;99.00
41756;DHT22;27435;48.480;9.258;2022-12-07T06:41:54;0.00;99.00
41756;DHT22;27435;48.480;9.258;2022-12-07T06:44:20;0.00;99.00
41756;DHT22;27435;48.480;9.258;2022-12-07T06:46:47;0.00;99.00
41756;DHT22;27435;48.480;9.258;2022-12-07T06:49:14;0.00;99.00
41756;DHT22;27435;48.480;9.258;2022-12-07T06:51:39;0.00;99.00
41756;DHT22;27435;48.480;9.258;2022-12-07T06:54:09;0.00;99.00
41756;DHT22;27435;48.480;9.258;2022-12-07T06:56:34;0.10;99.00
41756;DHT22;27435;48.480;9.258;2022-12-07T06:59:00;0.20;99.00
41756;DHT22;27435;48.480;9.258;2022-12-07T07:01:25;0.20;99.00
41756;DHT22;27435;48.480;9.258;2022-12-07T07:03:51;0.30;99.00
41756;DHT22;27435;48.480;9.258;2022-12-07T07:06:18;0.10;99.00
41756;DHT22;27435;48.480;9.258;2022-12-07T07:08:43;0.10;99.00
41756;DHT22;27435;48.480;9.258;2022-12-07T07:11:09;0.10;99.00
41756;DHT22;27435;48.480;9.258;2022-12-07T07:13:35;0.10;99.00
41756;DHT22;27435;48.480;9.258;2022-12-07T07:16:01;0.30;99.00
41756;DHT22;27435;48.480;9.258;2022-12-07T07:18:27;0.40;99.00
41756;DHT22;27435;48.480;9.258;2022-12-07T07:20:54;0.50;99.00
41756;DHT22;27435;48.480;9.258;2022-12-07T07:23:20;0.50;99.00
41756;DHT22;27435;48.480;9.258;2022-12-07T07:25:46;0.50;99.00
41756;DHT22;27435;48.480;9.258;2022-12-07T07:28:13;0.60;99.00
41756;DHT22;27435;48.480;9.258;2022-12-07T07:30:39;0.60;99.00
41756;DHT22;27435;48.480;9.258;2022-12-07T07:33:05;0.70;99.00
41756;DHT22;27435;48.480;9.258;2022-12-07T07:35:32;0.80;99.00
41756;DHT22;27435;48.480;9.258;2022-12-07T07:37:58;0.70;99.00
41756;DHT22;27435;48.480;9.258;2022-12-07T07:40:25;0.70;99.00
41756;DHT22;27435;48.480;9.258;2022-12-07T07:42:52;0.90;99.00
41756;DHT22;27435;48.480;9.258;2022-12-07T07:45:19;1.00;99.00
41756;DHT22;27435;48.480;9.258;2022-12-07T07:47:44;1.20;99.00
41756;DHT22;27435;48.480;9.258;2022-12-07T07:50:10;1.20;99.00
41756;DHT22;27435;48.480;9.258;2022-12-07T07:52:36;1.40;99.00
41756;DHT22;27435;48.480;9.258;2022-12-07T07:55:02;1.50;99.00
41756;DHT22;27435;48.480;9.258;2022-12-07T07:57:28;1.50;99.00
41756;DHT22;27435;48.480;9.258;2022-12-07T07:59:53;1.50;99.00
41756;DHT22;27435;48.480;9.258;2022-12-07T08:02:20;1.50;99.00
41756;DHT22;27435;48.480;9.258;2022-12-07T08:04:46;1.40;99.00
41756;DHT22;27435;48.480;9.258;2022-12-07T08:07:13;1.50;99.00
41756;DHT22;27435;48.480;9.258;2022-12-07T08:09:39;1.50;99.00
41756;DHT22;27435;48.480;9.258;2022-12-07T08:12:05;1.30;99.00
41756;DHT22;27435;48.480;9.258;2022-12-07T08:14:31;1.40;99.00
41756;DHT22;27435;48.480;9.258;2022-12-07T08:16:56;1.40;99.00
41756;DHT22;27435;48.480;9.258;2022-12-07T08:19:22;1.60;99.00
41756;DHT22;27435;48.480;9.258;2022-12-07T08:21:48;1.60;99.00
41756;DHT22;27435;48.480;9.258;2022-12-07T08:24:14;1.70;99.00
41756;DHT22;27435;48.480;9.258;2022-12-07T08:26:40;1.90;99.00
41756;DHT22;27435;48.480;9.258;2022-12-07T08:29:06;1.90;99.00
41756;DHT22;27435;48.480;9.258;2022-12-07T08:31:32;2.10;99.00
41756;DHT22;27435;48.480;9.258;2022-12-07T08:33:57;2.10;99.00
41756;DHT22;27435;48.480;9.258;2022-12-07T08:36:23;2.00;99.00
41756;DHT22;27435;48.480;9.258;2022-12-07T08:38:49;2.20;99.00
41756;DHT22;27435;48.480;9.258;2022-12-07T08:41:15;2.40;99.00
41756;DHT22;27435;48.480;9.258;2022-12-07T08:43:41;2.40;99.00
41756;DHT22;27435;48.480;9.258;2022-12-07T08:46:10;2.60;99.00
41756;DHT22;27435;48.480;9.258;2022-12-07T08:48:42;2.70;99.00
41756;DHT22;27435;48.480;9.258;2022-12-07T08:51:09;2.70;99.00
41756;DHT22;27435;48.480;9.258;2022-12-07T08:53:35;2.70;99.00
41756;DHT22;27435;48.480;9.258;2022-12-07T08:56:02;3.00;99.00
41756;DHT22;27435;48.480;9.258;2022-12-07T08:58:28;3.20;99.00
41756;DHT22;27435;48.480;9.258;2022-12-07T09:00:54;3.50;99.00
41756;DHT22;27435;48.480;9.258;2022-12-07T09:03:20;3.60;99.00
41756;DHT22;27435;48.480;9.258;2022-12-07T09:05:46;3.60;99.00
41756;DHT22;27435;48.480;9.258;2022-12-07T09:08:12;3.60;99.00
41756;DHT22;27435;48.480;9.258;2022-12-07T09:10:38;3.80;99.00
41756;DHT22;27435;48.480;9.258;2022-12-07T09:13:03;3.70;99.00
41756;DHT22;27435;48.480;9.258;2022-12-07T09:15:29;3.60;99.00
41756;DHT22;27435;48.480;9.258;2022-12-07T09:17:55;3.60;99.00
41756;DHT22;27435;48.480;9.258;2022-12-07T09:20:21;3.70;99.00
41756;DHT22;27435;48.480;9.258;2022-12-07T09:22:47;3.90;99.00
41756;DHT22;27435;48.480;9.258;2022-12-07T09:25:12;3.80;99.00
41756;DHT22;27435;48.480;9.258;2022-12-07T09:27:38;3.80;99.00
41756;DHT22;27435;48.480;9.258;2022-12-07T09:30:05;4.00;99.00
41756;DHT22;27435;48.480;9.258;2022-12-07T09:32:31;3.90;99.00
41756;DHT22;27435;48.480;9.258;2022-12-07T09:34:56;3.90;99.00
41756;DHT22;27435;48.480;9.258;2022-12-07T09:37:22;4.20;99.00
41756;DHT22;27435;48.480;9.258;2022-12-07T09:39:47;4.20;99.00
41756;DHT22;27435;48.480;9.258;2022-12-07T09:42:27;4.40;99.00
41756;DHT22;27435;48.480;9.258;2022-12-07T09:44:54;4.60;99.00
41756;DHT22;27435;48.480;9.258;2022-12-07T09:47:19;4.60;99.00
41756;DHT22;27435;48.480;9.258;2022-12-07T09:49:45;4.40;99.00
41756;DHT22;27435;48.480;9.258;2022-12-07T09:52:20;4.40;99.00
41756;DHT22;27435;48.480;9.258;2022-12-07T09:54:50;4.30;99.00
41756;DHT22;27435;48.480;9.258;2022-12-07T09:57:17;4.10;99.00
41756;DHT22;27435;48.480;9.258;2022-12-07T09:59:43;4.10;99.00
41756;DHT22;27435;48.480;9.258;2022-12-07T10:05:00;4.40;99.00
41756;DHT22;27435;48.480;9.258;2022-12-07T10:07:26;4.50;99.00
41756;DHT22;27435;48.480;9.258;2022-12-07T10:09:51;4.60;99.00
41756;DHT22;27435;48.480;9.258;2022-12-07T10:12:17;4.30;99.00
41756;DHT22;27435;48.480;9.258;2022-12-07T10:14:55;4.30;99.00
41756;DHT22;27435;48.480;9.258;2022-12-07T10:20:28;4.60;99.00
41756;DHT22;27435;48.480;9.258;2022-12-07T10:23:05;4.60;98.60
41756;DHT22;27435;48.480;9.258;2022-12-07T10:25:34;4.60;96.40
41756;DHT22;27435;48.480;9.258;2022-12-07T10:28:12;4.40;97.80
41756;DHT22;27435;48.480;9.258;2022-12-07T10:30:52;4.50;98.20
41756;DHT22;27435;48.480;9.258;2022-12-07T10:33:40;4.50;98.20
41756;DHT22;27435;48.480;9.258;2022-12-07T10:39:10;4.80;96.30
41756;DHT22;27435;48.480;9.258;2022-12-07T10:44:24;4.60;96.40
41756;DHT22;27435;48.480;9.258;2022-12-07T10:47:20;4.60;95.40
41756;DHT22;27435;48.480;9.258;2022-12-07T10:55:56;5.20;93.60
41756;DHT22;27435;48.480;9.258;2022-12-07T11:07:12;4.80;94.10
41756;DHT22;27435;48.480;9.258;2022-12-07T11:10:05;5.10;93.10
41756;DHT22;27435;48.480;9.258;2022-12-07T11:15:18;5.20;92.60
41756;DHT22;27435;48.480;9.258;2022-12-07T11:20:53;5.50;89.90
41756;DHT22;27435;48.480;9.258;2022-12-07T11:31:41;5.70;89.70
41756;DHT22;27435;48.480;9.258;2022-12-07T11:37:38;5.10;92.30
41756;DHT22;27435;48.480;9.258;2022-12-07T11:43:25;5.60;91.50
41756;DHT22;27435;48.480;9.258;2022-12-07T11:46:11;5.70;90.40
41756;DHT22;27435;48.480;9.258;2022-12-07T11:48:38;6.00;89.40
41756;DHT22;27435;48.480;9.258;2022-12-07T11:51:09;6.10;89.10
41756;DHT22;27435;48.480;9.258;2022-12-07T11:53:41;6.10;88.70
41756;DHT22;27435;48.480;9.258;2022-12-07T11:56:15;5.80;89.50
41756;DHT22;27435;48.480;9.258;2022-12-07T12:01:52;5.70;90.30
41756;DHT22;27435;48.480;9.258;2022-12-07T12:04:32;5.30;91.90
41756;DHT22;27435;48.480;9.258;2022-12-07T12:06:58;5.50;91.70
41756;DHT22;27435;48.480;9.258;2022-12-07T12:09:29;5.10;92.70
41756;DHT22;27435;48.480;9.258;2022-12-07T12:12:21;5.30;92.70
41756;DHT22;27435;48.480;9.258;2022-12-07T12:20:35;6.00;90.60
41756;DHT22;27435;48.480;9.258;2022-12-07T12:23:24;6.00;89.90
41756;DHT22;27435;48.480;9.258;2022-12-07T12:25:59;6.10;89.70
41756;DHT22;27435;48.480;9.258;2022-12-07T12:28:37;6.00;88.60
41756;DHT22;27435;48.480;9.258;2022-12-07T12:31:17;5.80;90.30
41756;DHT22;27435;48.480;9.258;2022-12-07T12:33:59;5.90;90.70
41756;DHT22;27435;48.480;9.258;2022-12-07T12:54:27;5.70;91.80
41756;DHT22;27435;48.480;9.258;2022-12-07T12:57:17;5.90;90.10
41756;DHT22;27435;48.480;9.258;2022-12-07T13:02:32;5.80;89.80
41756;DHT22;27435;48.480;9.258;2022-12-07T13:10:31;6.00;90.50
41756;DHT22;27435;48.480;9.258;2022-12-07T13:13:31;5.90;90.40
41756;DHT22;27435;48.480;9.258;2022-12-07T13:18:37;5.30;92.40
41756;DHT22;27435;48.480;9.258;2022-12-07T13:28:41;5.50;93.00
41756;DHT22;27435;48.480;9.258;2022-12-07T13:33:54;5.40;93.80
41756;DHT22;27435;48.480;9.258;2022-12-07T13:36:21;5.40;94.10
41756;DHT22;27435;48.480;9.258;2022-12-07T13:38:54;5.40;94.00
41756;DHT22;27435;48.480;9.258;2022-12-07T13:41:22;5.30;94.20
41756;DHT22;27435;48.480;9.258;2022-12-07T13:46:24;5.20;95.10
41756;DHT22;27435;48.480;9.258;2022-12-07T13:48:51;5.10;95.30
41756;DHT22;27435;48.480;9.258;2022-12-07T13:51:27;5.20;95.60
41756;DHT22;27435;48.480;9.258;2022-12-07T13:54:01;5.40;94.30
41756;DHT22;27435;48.480;9.258;2022-12-07T13:56:35;5.20;95.40
41756;DHT22;27435;48.480;9.258;2022-12-07T13:59:01;5.20;96.30
41756;DHT22;27435;48.480;9.258;2022-12-07T14:01:30;5.40;95.10
41756;DHT22;27435;48.480;9.258;2022-12-07T14:03:56;5.30;95.50
41756;DHT22;27435;48.480;9.258;2022-12-07T14:06:50;5.40;95.20
41756;DHT22;27435;48.480;9.258;2022-12-07T14:09:25;5.40;95.10
41756;DHT22;27435;48.480;9.258;2022-12-07T14:11:53;5.50;94.80
41756;DHT22;27435;48.480;9.258;2022-12-07T14:14:25;5.50;94.20
41756;DHT22;27435;48.480;9.258;2022-12-07T14:16:58;5.60;94.70
41756;DHT22;27435;48.480;9.258;2022-12-07T14:19:45;5.40;94.40
41756;DHT22;27435;48.480;9.258;2022-12-07T14:22:29;5.10;96.30
41756;DHT22;27435;48.480;9.258;2022-12-07T14:27:53;5.20;95.90
41756;DHT22;27435;48.480;9.258;2022-12-07T14:30:21;5.20;96.20
41756;DHT22;27435;48.480;9.258;2022-12-07T14:32:54;5.10;96.30
41756;DHT22;27435;48.480;9.258;2022-12-07T14:35:20;4.90;96.80
41756;DHT22;27435;48.480;9.258;2022-12-07T14:37:47;4.70;98.10
41756;DHT22;27435;48.480;9.258;2022-12-07T14:40:19;4.60;98.40
41756;DHT22;27435;48.480;9.258;2022-12-07T14:42:46;4.50;99.00
41756;DHT22;27435;48.480;9.258;2022-12-07T14:45:18;4.40;99.00
41756;DHT22;27435;48.480;9.258;2022-12-07T14:47:45;4.40;99.00
41756;DHT22;27435;48.480;9.258;2022-12-07T14:50:16;4.40;99.00
41756;DHT22;27435;48.480;9.258;2022-12-07T14:52:49;4.30;99.00
41756;DHT22;27435;48.480;9.258;2022-12-07T14:55:27;4.40;99.00
41756;DHT22;27435;48.480;9.258;2022-12-07T14:57:54;4.30;99.00
41756;DHT22;27435;48.480;9.258;2022-12-07T15:00:21;4.40;99.00
41756;DHT22;27435;48.480;9.258;2022-12-07T15:02:48;4.70;99.00
41756;DHT22;27435;48.480;9.258;2022-12-07T15:05:14;4.70;99.00
41756;DHT22;27435;48.480;9.258;2022-12-07T15:07:40;4.70;99.00
41756;DHT22;27435;48.480;9.258;2022-12-07T15:10:13;4.60;99.00
41756;DHT22;27435;48.480;9.258;2022-12-07T15:12:39;4.60;99.00
41756;DHT22;27435;48.480;9.258;2022-12-07T15:15:05;4.50;99.00
41756;DHT22;27435;48.480;9.258;2022-12-07T15:17:31;4.50;99.00
41756;DHT22;27435;48.480;9.258;2022-12-07T15:19:57;4.50;99.00
41756;DHT22;27435;48.480;9.258;2022-12-07T15:22:22;4.40;99.00
41756;DHT22;27435;48.480;9.258;2022-12-07T15:24:48;4.40;99.00
41756;DHT22;27435;48.480;9.258;2022-12-07T15:27:14;4.40;99.00
41756;DHT22;27435;48.480;9.258;2022-12-07T15:29:39;4.40;99.00
41756;DHT22;27435;48.480;9.258;2022-12-07T15:32:05;4.40;99.00
41756;DHT22;27435;48.480;9.258;2022-12-07T15:34:31;4.30;99.00
41756;DHT22;27435;48.480;9.258;2022-12-07T15:36:57;4.40;99.00
41756;DHT22;27435;48.480;9.258;2022-12-07T15:39:23;4.20;99.00
41756;DHT22;27435;48.480;9.258;2022-12-07T15:41:48;4.20;99.00
41756;DHT22;27435;48.480;9.258;2022-12-07T15:44:14;4.30;99.00
41756;DHT22;27435;48.480;9.258;2022-12-07T15:46:59;4.20;99.00
41756;DHT22;27435;48.480;9.258;2022-12-07T15:49:25;4.20;99.00
41756;DHT22;27435;48.480;9.258;2022-12-07T15:51:51;4.20;99.00
41756;DHT22;27435;48.480;9.258;2022-12-07T15:54:23;4.10;99.00
41756;DHT22;27435;48.480;9.258;2022-12-07T15:56:49;4.10;99.00
41756;DHT22;27435;48.480;9.258;2022-12-07T15:59:15;4.10;99.00
41756;DHT22;27435;48.480;9.258;2022-12-07T16:01:41;4.20;99.00
41756;DHT22;27435;48.480;9.258;2022-12-07T16:04:06;4.10;99.00
41756;DHT22;27435;48.480;9.258;2022-12-07T16:06:32;4.30;99.00
41756;DHT22;27435;48.480;9.258;2022-12-07T16:08:58;4.20;99.00
41756;DHT22;27435;48.480;9.258;2022-12-07T16:11:23;4.20;99.00
41756;DHT22;27435;48.480;9.258;2022-12-07T16:13:49;4.10;99.00
41756;DHT22;27435;48.480;9.258;2022-12-07T16:16:17;4.10;99.00
41756;DHT22;27435;48.480;9.258;2022-12-07T16:18:44;4.00;99.00
41756;DHT22;27435;48.480;9.258;2022-12-07T16:21:10;4.00;99.00
41756;DHT22;27435;48.480;9.258;2022-12-07T16:23:36;3.90;99.00
41756;DHT22;27435;48.480;9.258;2022-12-07T16:26:14;4.00;99.00
41756;DHT22;27435;48.480;9.258;2022-12-07T16:28:41;4.00;99.00
41756;DHT22;27435;48.480;9.258;2022-12-07T16:31:15;3.90;99.00
41756;DHT22;27435;48.480;9.258;2022-12-07T16:33:41;3.90;99.00
41756;DHT22;27435;48.480;9.258;2022-12-07T16:36:09;3.80;99.00
41756;DHT22;27435;48.480;9.258;2022-12-07T16:38:36;3.80;99.00
41756;DHT22;27435;48.480;9.258;2022-12-07T16:41:02;3.70;99.00
41756;DHT22;27435;48.480;9.258;2022-12-07T16:43:27;3.70;99.00
41756;DHT22;27435;48.480;9.258;2022-12-07T16:45:53;3.60;99.00
41756;DHT22;27435;48.480;9.258;2022-12-07T16:48:18;3.70;99.00
41756;DHT22;27435;48.480;9.258;2022-12-07T16:50:44;3.60;99.00
41756;DHT22;27435;48.480;9.258;2022-12-07T16:53:11;3.60;99.00
41756;DHT22;27435;48.480;9.258;2022-12-07T16:55:42;3.50;99.00
41756;DHT22;27435;48.480;9.258;2022-12-07T16:58:08;3.50;99.00
41756;DHT22;27435;48.480;9.258;2022-12-07T17:00:34;3.60;99.00
41756;DHT22;27435;48.480;9.258;2022-12-07T17:03:00;3.50;99.00
41756;DHT22;27435;48.480;9.258;2022-12-07T17:05:27;3.40;99.00
41756;DHT22;27435;48.480;9.258;2022-12-07T17:07:55;3.40;99.00
41756;DHT22;27435;48.480;9.258;2022-12-07T17:10:22;3.40;99.00
41756;DHT22;27435;48.480;9.258;2022-12-07T17:12:49;3.40;99.00
41756;DHT22;27435;48.480;9.258;2022-12-07T17:15:15;3.30;99.00
41756;DHT22;27435;48.480;9.258;2022-12-07T17:17:54;3.20;99.00
41756;DHT22;27435;48.480;9.258;2022-12-07T17:20:24;3.00;99.00
41756;DHT22;27435;48.480;9.258;2022-12-07T17:22:50;3.10;99.00
41756;DHT22;27435;48.480;9.258;2022-12-07T17:25:16;3.20;99.00
41756;DHT22;27435;48.480;9.258;2022-12-07T17:27:42;3.10;99.00
41756;DHT22;27435;48.480;9.258;2022-12-07T17:30:08;3.10;99.00
41756;DHT22;27435;48.480;9.258;2022-12-07T17:32:34;3.00;99.00
41756;DHT22;27435;48.480;9.258;2022-12-07T17:35:00;2.90;99.00
41756;DHT22;27435;48.480;9.258;2022-12-07T17:37:26;2.90;99.00
41756;DHT22;27435;48.480;9.258;2022-12-07T17:39:52;3.00;99.00
41756;DHT22;27435;48.480;9.258;2022-12-07T17:42:19;2.80;99.00
41756;DHT22;27435;48.480;9.258;2022-12-07T17:45:06;2.80;99.00
41756;DHT22;27435;48.480;9.258;2022-12-07T17:47:33;2.80;99.00
41756;DHT22;27435;48.480;9.258;2022-12-07T17:49:58;2.90;99.00
41756;DHT22;27435;48.480;9.258;2022-12-07T17:52:24;2.90;99.00
41756;DHT22;27435;48.480;9.258;2022-12-07T17:55:09;3.10;99.00
41756;DHT22;27435;48.480;9.258;2022-12-07T17:57:34;3.10;99.00
41756;DHT22;27435;48.480;9.258;2022-12-07T18:00:00;3.20;99.00
41756;DHT22;27435;48.480;9.258;2022-12-07T18:02:26;3.30;99.00
41756;DHT22;27435;48.480;9.258;2022-12-07T18:04:52;3.30;99.00
41756;DHT22;27435;48.480;9.258;2022-12-07T18:07:17;3.30;99.00
41756;DHT22;27435;48.480;9.258;2022-12-07T18:09:43;3.20;99.00
41756;DHT22;27435;48.480;9.258;2022-12-07T18:12:09;3.10;99.00